createdAt,value
2018-03-17T00:00:15.612Z,14.85
2018-03-17T00:02:44.556Z,18.20
2018-03-17T00:05:13.469Z,19.67
2018-03-17T00:07:42.400Z,19.35
2018-03-17T00:10:11.321Z,21.20
2018-03-17T00:12:40.250Z,18.60
2018-03-17T00:15:09.482Z,19.02
2018-03-17T00:17:38.405Z,16.80
2018-03-17T00:20:07.466Z,19.62
2018-03-17T00:22:36.434Z,22.45
2018-03-17T00:25:05.372Z,23.33
2018-03-17T00:27:34.312Z,22.23
2018-03-17T00:30:03.271Z,21.17
2018-03-17T00:32:32.315Z,21.58
2018-03-17T00:35:01.423Z,19.33
2018-03-17T00:37:30.407Z,18.52
2018-03-17T00:39:59.358Z,17.77
2018-03-17T00:42:28.325Z,15.23
2018-03-17T00:44:58.022Z,12.25
2018-03-17T00:47:26.980Z,20.00
2018-03-17T00:49:55.915Z,15.52
2018-03-17T00:52:24.943Z,21.95
2018-03-17T00:54:54.195Z,21.40
2018-03-17T00:57:23.240Z,20.95
2018-03-17T00:59:52.262Z,12.95
2018-03-17T01:02:21.361Z,20.90
2018-03-17T01:04:50.440Z,9.13
2018-03-17T01:07:19.652Z,18.83
2018-03-17T01:09:48.608Z,16.75
2018-03-17T01:12:17.568Z,21.17
2018-03-17T01:14:46.488Z,16.37
2018-03-17T01:17:15.430Z,17.90
2018-03-17T01:19:44.416Z,15.68
2018-03-17T01:22:13.413Z,16.33
2018-03-17T01:24:42.373Z,13.90
2018-03-17T01:27:11.361Z,12.73
2018-03-17T01:29:40.322Z,17.37
2018-03-17T01:32:09.232Z,17.27
2018-03-17T01:34:38.231Z,18.95
2018-03-17T01:37:07.160Z,16.58
2018-03-17T01:39:36.349Z,19.80
2018-03-17T01:42:05.305Z,19.08
2018-03-17T01:44:34.337Z,18.98
2018-03-17T01:47:03.530Z,19.15
2018-03-17T01:49:32.667Z,20.80
2018-03-17T01:52:01.590Z,16.15
2018-03-17T01:54:31.432Z,15.88
2018-03-17T01:57:00.402Z,16.00
2018-03-17T01:59:29.326Z,17.00
2018-03-17T02:01:58.366Z,19.27
2018-03-17T02:04:27.278Z,17.37
2018-03-17T02:06:56.300Z,15.68
2018-03-17T02:09:25.263Z,17.25
2018-03-17T02:11:54.204Z,12.82
2018-03-17T02:14:23.149Z,15.13
2018-03-17T02:16:52.066Z,10.65
2018-03-17T02:19:21.037Z,15.77
2018-03-17T02:21:49.940Z,18.02
2018-03-17T02:24:19.048Z,13.10
2018-03-17T02:26:48.129Z,11.40
2018-03-17T02:29:17.059Z,12.02
2018-03-17T02:31:46.018Z,12.65
2018-03-17T02:34:14.987Z,13.80
2018-03-17T02:36:43.971Z,13.73
2018-03-17T02:39:12.988Z,14.80
2018-03-17T02:41:42.205Z,14.85
2018-03-17T02:44:11.131Z,12.45
2018-03-17T02:46:40.102Z,18.60
2018-03-17T02:49:09.017Z,16.40
2018-03-17T02:51:37.949Z,15.38
2018-03-17T02:54:06.876Z,16.98
2018-03-17T02:56:35.797Z,16.58
2018-03-17T02:59:04.992Z,14.87
2018-03-17T03:01:34.014Z,12.68
2018-03-17T03:04:02.946Z,11.57
2018-03-17T03:06:31.867Z,14.75
2018-03-17T03:09:00.873Z,13.45
2018-03-17T03:11:30.009Z,14.00
2018-03-17T03:13:58.952Z,14.13
2018-03-17T03:16:27.874Z,11.48
2018-03-17T03:18:56.880Z,11.15
2018-03-17T03:21:25.942Z,12.75
2018-03-17T03:23:55.054Z,11.07
2018-03-17T03:26:24.166Z,9.13
2018-03-17T03:28:53.087Z,13.62
2018-03-17T03:31:22.152Z,11.25
2018-03-17T03:33:51.115Z,12.63
2018-03-17T03:36:20.030Z,13.05
2018-03-17T03:38:49.029Z,13.05
2018-03-17T03:41:18.019Z,13.95
2018-03-17T03:43:46.950Z,11.98
2018-03-17T03:46:15.920Z,11.23
2018-03-17T03:48:44.903Z,10.57
2018-03-17T03:51:13.852Z,12.37
2018-03-17T03:53:42.812Z,11.00
2018-03-17T03:56:11.769Z,12.07
2018-03-17T03:58:40.700Z,9.75
2018-03-17T04:01:09.611Z,10.48
2018-03-17T04:03:38.559Z,13.98
2018-03-17T04:06:07.609Z,14.52
2018-03-17T04:08:36.546Z,13.93
2018-03-17T04:11:05.564Z,13.90
2018-03-17T04:13:34.493Z,12.00
2018-03-17T04:16:03.405Z,16.20
2018-03-17T04:18:32.347Z,10.15
2018-03-17T04:21:01.261Z,15.10
2018-03-17T04:23:30.218Z,9.07
2018-03-17T04:25:59.135Z,13.00
2018-03-17T04:28:28.060Z,13.75
2018-03-17T04:30:57.034Z,14.05
2018-03-17T04:33:25.963Z,11.18
2018-03-17T04:35:55.058Z,14.73
2018-03-17T04:38:24.022Z,14.02
2018-03-17T04:40:52.946Z,21.37
2018-03-17T04:43:21.910Z,15.90
2018-03-17T04:45:50.862Z,13.57
2018-03-17T04:48:19.784Z,16.73
2018-03-17T04:50:48.913Z,13.35
2018-03-17T04:53:17.864Z,14.45
2018-03-17T04:55:46.827Z,13.40
2018-03-17T04:58:15.755Z,15.38
2018-03-17T05:00:44.807Z,14.25
2018-03-17T05:03:13.771Z,12.35
2018-03-17T05:05:42.730Z,11.20
2018-03-17T05:08:11.656Z,13.60
2018-03-17T05:10:40.698Z,13.15
2018-03-17T05:13:09.618Z,16.27
2018-03-17T05:15:38.745Z,14.23
2018-03-17T05:18:07.801Z,17.08
2018-03-17T05:20:36.724Z,16.25
2018-03-17T05:23:05.689Z,9.45
2018-03-17T05:25:34.754Z,14.68
2018-03-17T05:28:03.710Z,15.70
2018-03-17T05:30:32.635Z,13.48
2018-03-17T05:33:01.633Z,12.55
2018-03-17T05:35:30.717Z,15.10
2018-03-17T05:37:59.650Z,15.82
2018-03-17T05:40:28.583Z,11.40
2018-03-17T05:42:57.805Z,15.10
2018-03-17T05:45:26.845Z,12.48
2018-03-17T05:47:55.790Z,13.52
2018-03-17T05:50:24.752Z,15.02
2018-03-17T05:52:53.676Z,16.98
2018-03-17T05:55:22.633Z,17.50
2018-03-17T05:57:51.556Z,16.95
2018-03-17T06:00:20.520Z,10.00
2018-03-17T06:02:49.558Z,14.25
2018-03-17T06:05:18.512Z,13.57
2018-03-17T06:07:47.440Z,10.38
2018-03-17T06:10:16.382Z,14.10
2018-03-17T06:12:45.390Z,11.85
2018-03-17T06:15:14.309Z,11.25
2018-03-17T06:17:43.386Z,17.58
2018-03-17T06:20:12.361Z,13.57
2018-03-17T06:22:41.283Z,16.17
2018-03-17T06:25:10.280Z,15.07
2018-03-17T06:27:39.203Z,20.10
2018-03-17T06:30:08.127Z,16.67
2018-03-17T06:32:37.141Z,17.95
2018-03-17T06:35:06.050Z,15.88
2018-03-17T06:37:34.972Z,13.62
2018-03-17T06:40:04.009Z,16.50
2018-03-17T06:42:32.961Z,15.10
2018-03-17T06:45:02.218Z,17.80
2018-03-17T06:47:31.286Z,16.17
2018-03-17T06:50:00.215Z,15.55
2018-03-17T06:52:29.135Z,14.27
2018-03-17T06:54:58.098Z,15.68
2018-03-17T06:57:27.041Z,16.05
2018-03-17T06:59:56.225Z,17.45
2018-03-17T07:02:25.150Z,23.80
2018-03-17T07:04:54.318Z,14.45
2018-03-17T07:07:23.250Z,19.42
2018-03-17T07:09:52.877Z,17.33
2018-03-17T07:12:21.851Z,18.65
2018-03-17T07:14:51.050Z,17.40
2018-03-17T07:17:19.986Z,18.80
2018-03-17T07:19:49.014Z,15.75
2018-03-17T07:22:17.975Z,11.98
2018-03-17T07:24:46.960Z,18.48
2018-03-17T07:27:15.930Z,18.80
2018-03-17T07:29:44.844Z,19.27
2018-03-17T07:32:13.777Z,16.40
2018-03-17T07:34:42.765Z,23.35
2018-03-17T07:37:12.735Z,18.92
2018-03-17T07:39:41.641Z,16.52
2018-03-17T07:42:10.707Z,16.50
2018-03-17T07:44:39.766Z,10.63
2018-03-17T07:47:08.713Z,13.55
2018-03-17T07:49:38.655Z,18.15
2018-03-17T07:52:07.614Z,15.30
2018-03-17T07:54:36.654Z,20.35
2018-03-17T07:57:05.753Z,18.62
2018-03-17T07:59:34.666Z,23.20
2018-03-17T08:02:03.575Z,23.65
2018-03-17T08:04:32.529Z,17.77
2018-03-17T08:09:59.546Z,17.37
2018-03-17T08:12:28.488Z,24.33
2018-03-17T08:14:57.431Z,43.63
2018-03-17T08:17:26.384Z,29.23
2018-03-17T08:19:55.334Z,79.82
2018-03-17T08:22:24.289Z,16.55
2018-03-17T08:24:53.216Z,20.10
2018-03-17T08:27:22.113Z,14.87
2018-03-17T08:29:51.392Z,22.67
2018-03-17T08:32:20.352Z,24.98
2018-03-17T08:34:49.269Z,14.40
2018-03-17T08:37:18.475Z,16.40
2018-03-17T08:39:47.389Z,16.58
2018-03-17T08:42:16.311Z,17.65
2018-03-17T08:44:45.248Z,22.65
2018-03-17T08:47:14.241Z,13.85
2018-03-17T08:49:43.237Z,12.93
2018-03-17T08:52:12.158Z,14.50
2018-03-17T08:54:41.346Z,16.60
2018-03-17T08:57:10.269Z,15.82
2018-03-17T08:59:39.295Z,18.20
2018-03-17T09:02:08.223Z,16.58
2018-03-17T09:04:37.144Z,13.80
2018-03-17T09:07:06.076Z,14.32
2018-03-17T09:09:35.041Z,13.57
2018-03-17T09:12:04.125Z,12.02
2018-03-17T09:14:33.054Z,9.77
2018-03-17T09:17:02.003Z,16.92
2018-03-17T09:19:31.272Z,15.18
2018-03-17T09:22:00.296Z,12.37
2018-03-17T09:24:29.257Z,15.55
2018-03-17T09:26:58.155Z,13.85
2018-03-17T09:29:27.122Z,16.12
2018-03-17T09:31:56.052Z,13.50
2018-03-17T09:34:24.960Z,12.73
2018-03-17T09:36:53.891Z,12.05
2018-03-17T09:39:22.854Z,11.93
2018-03-17T09:41:51.804Z,15.30
2018-03-17T09:44:20.728Z,15.73
2018-03-17T09:46:49.777Z,15.00
2018-03-17T09:49:18.697Z,13.50
2018-03-17T09:51:47.660Z,11.43
2018-03-17T09:54:16.638Z,12.57
2018-03-17T09:56:45.536Z,13.48
2018-03-17T09:59:14.467Z,15.00
2018-03-17T10:01:43.545Z,8.85
2018-03-17T10:04:12.548Z,9.55
2018-03-17T10:06:41.593Z,15.05
2018-03-17T10:09:10.599Z,17.48
2018-03-17T10:11:39.528Z,14.40
2018-03-17T10:14:08.428Z,10.63
2018-03-17T10:16:37.359Z,9.98
2018-03-17T10:19:06.307Z,13.82
2018-03-17T10:21:35.218Z,15.65
2018-03-17T10:24:04.181Z,15.00
2018-03-17T10:26:33.116Z,10.65
2018-03-17T10:29:02.031Z,9.30
2018-03-17T10:31:30.990Z,15.10
2018-03-17T10:34:00.069Z,15.98
2018-03-17T10:36:29.017Z,14.85
2018-03-17T10:38:58.074Z,14.20
2018-03-17T10:41:27.001Z,12.15
2018-03-17T10:43:55.921Z,12.00
2018-03-17T10:46:24.878Z,13.48
2018-03-17T10:48:53.915Z,13.50
2018-03-17T10:51:22.870Z,11.10
2018-03-17T10:53:51.827Z,12.68
2018-03-17T10:56:20.750Z,13.27
2018-03-17T10:58:49.787Z,10.15
2018-03-17T11:01:20.648Z,13.93
2018-03-17T11:03:49.593Z,14.32
2018-03-17T11:06:18.495Z,10.82
2018-03-17T11:08:47.422Z,12.07
2018-03-17T11:11:16.380Z,13.23
2018-03-17T11:13:45.410Z,12.10
2018-03-17T11:16:14.319Z,10.65
2018-03-17T11:18:43.236Z,8.65
2018-03-17T11:21:12.184Z,14.52
2018-03-17T11:23:41.199Z,13.30
2018-03-17T11:26:10.317Z,15.77
2018-03-17T11:28:39.262Z,15.45
2018-03-17T11:31:08.277Z,11.82
2018-03-17T11:33:37.211Z,20.85
2018-03-17T11:36:06.171Z,14.50
2018-03-17T11:38:35.767Z,19.70
2018-03-17T11:41:04.746Z,15.07
2018-03-17T11:43:33.651Z,14.05
2018-03-17T11:46:02.592Z,13.05
2018-03-17T11:48:31.508Z,14.60
2018-03-17T11:51:00.456Z,11.88
2018-03-17T11:53:37.753Z,8.18
2018-03-17T11:56:06.680Z,9.63
2018-03-17T11:58:35.647Z,11.23
2018-03-17T12:01:04.620Z,12.05
2018-03-17T12:03:33.548Z,15.63
2018-03-17T12:06:02.524Z,11.40
2018-03-17T12:08:31.432Z,12.85
2018-03-17T12:11:00.348Z,11.65
2018-03-17T12:13:29.295Z,10.05
2018-03-17T12:15:58.232Z,12.50
2018-03-17T12:18:27.151Z,9.73
2018-03-17T12:20:56.123Z,12.18
2018-03-17T12:23:25.023Z,7.47
2018-03-17T12:25:53.957Z,11.20
2018-03-17T12:28:22.928Z,8.35
2018-03-17T12:30:51.824Z,12.95
2018-03-17T12:33:20.736Z,10.82
2018-03-17T12:35:49.741Z,9.43
2018-03-17T12:38:18.644Z,8.45
2018-03-17T12:40:47.586Z,10.68
2018-03-17T12:43:16.581Z,12.65
2018-03-17T12:45:45.477Z,6.03
2018-03-17T12:48:14.386Z,7.90
2018-03-17T12:50:43.368Z,11.65
2018-03-17T12:53:12.272Z,8.07
2018-03-17T12:55:41.203Z,9.88
2018-03-17T12:58:10.180Z,9.88
2018-03-17T13:00:39.091Z,11.00
2018-03-17T13:03:08.005Z,11.48
2018-03-17T13:05:37.912Z,9.50
2018-03-17T13:08:06.912Z,9.80
2018-03-17T13:10:35.880Z,10.88
2018-03-17T13:13:04.845Z,9.52
2018-03-17T13:15:33.746Z,10.90
2018-03-17T13:18:02.708Z,14.20
2018-03-17T13:20:31.608Z,11.57
2018-03-17T13:23:06.250Z,19.10
2018-03-17T13:25:35.230Z,15.75
2018-03-17T13:28:10.043Z,12.13
2018-03-17T13:30:38.950Z,11.20
2018-03-17T13:33:07.916Z,14.77
2018-03-17T13:35:42.727Z,7.78
2018-03-17T13:38:11.632Z,6.90
2018-03-17T13:40:41.403Z,11.95
2018-03-17T13:43:10.367Z,18.75
2018-03-17T13:45:39.268Z,12.60
2018-03-17T13:48:08.231Z,7.97
2018-03-17T13:50:37.132Z,10.30
2018-03-17T13:53:06.044Z,16.10
2018-03-17T13:55:35.011Z,12.73
2018-03-17T13:58:03.920Z,10.73
2018-03-17T14:00:32.828Z,10.38
2018-03-17T14:03:01.776Z,12.43
2018-03-17T14:05:30.697Z,16.67
2018-03-17T14:07:59.601Z,13.77
2018-03-17T14:10:28.572Z,9.20
2018-03-17T14:12:57.508Z,10.70
2018-03-17T14:15:26.489Z,13.45
2018-03-17T14:17:55.424Z,12.48
2018-03-17T14:20:24.345Z,10.35
2018-03-17T14:22:53.305Z,9.98
2018-03-17T14:25:22.226Z,15.32
2018-03-17T14:27:51.155Z,14.52
2018-03-17T14:30:20.214Z,11.85
2018-03-17T14:32:49.141Z,17.92
2018-03-17T14:35:18.112Z,17.35
2018-03-17T14:37:47.066Z,10.85
2018-03-17T14:40:16.017Z,9.63
2018-03-17T14:42:44.949Z,11.02
2018-03-17T14:45:13.907Z,12.45
2018-03-17T14:47:42.827Z,14.13
2018-03-17T14:50:11.783Z,12.05
2018-03-17T14:52:40.711Z,11.15
2018-03-17T14:55:09.628Z,10.52
2018-03-17T14:57:38.556Z,9.70
2018-03-17T15:00:07.455Z,13.90
2018-03-17T15:02:36.402Z,19.52
2018-03-17T15:05:05.344Z,17.95
2018-03-17T15:07:34.292Z,12.15
2018-03-17T15:10:03.210Z,12.50
2018-03-17T15:12:32.172Z,16.10
2018-03-17T15:15:01.161Z,16.40
2018-03-17T15:17:30.067Z,12.18
2018-03-17T15:19:58.984Z,12.37
2018-03-17T15:22:27.913Z,11.18
2018-03-17T15:24:56.840Z,9.93
2018-03-17T15:27:25.755Z,11.50
2018-03-17T15:29:54.720Z,13.68
2018-03-17T15:32:23.635Z,12.32
2018-03-17T15:34:52.553Z,15.32
2018-03-17T15:37:21.481Z,15.98
2018-03-17T15:39:50.389Z,13.77
2018-03-17T15:42:19.378Z,20.05
2018-03-17T15:44:48.302Z,14.25
2018-03-17T15:47:17.212Z,10.65
2018-03-17T15:49:46.178Z,15.32
2018-03-17T15:52:15.088Z,14.02
2018-03-17T15:54:44.048Z,12.55
2018-03-17T15:57:12.983Z,14.75
2018-03-17T15:59:41.892Z,13.77
2018-03-17T16:02:10.788Z,15.68
2018-03-17T16:04:39.747Z,17.17
2018-03-17T16:07:08.711Z,15.07
2018-03-17T16:09:37.619Z,17.58
2018-03-17T16:12:06.549Z,20.20
2018-03-17T16:14:35.475Z,22.05
2018-03-17T16:17:04.384Z,9.88
2018-03-17T16:19:33.325Z,15.02
2018-03-17T16:22:02.269Z,16.37
2018-03-17T16:24:31.321Z,8.85
2018-03-17T16:27:00.388Z,13.50
2018-03-17T16:29:29.326Z,14.32
2018-03-17T16:31:58.244Z,18.12
2018-03-17T16:34:27.155Z,15.00
2018-03-17T16:36:56.102Z,22.02
2018-03-17T16:39:25.009Z,19.90
2018-03-17T16:41:54.544Z,21.83
2018-03-17T16:44:23.472Z,23.42
2018-03-17T16:46:52.376Z,26.77
2018-03-17T16:49:21.304Z,37.40
2018-03-17T16:51:50.243Z,44.42
2018-03-17T16:54:19.160Z,28.60
2018-03-17T16:56:48.091Z,33.33
2018-03-17T16:59:17.036Z,29.67
2018-03-17T17:01:45.944Z,56.17
2018-03-17T17:04:14.883Z,32.00
2018-03-17T17:06:43.816Z,30.85
2018-03-17T17:09:12.753Z,44.80
2018-03-17T17:11:41.667Z,77.80
2018-03-17T17:14:10.617Z,90.97
2018-03-17T17:16:39.553Z,46.97
2018-03-17T17:19:08.480Z,35.28
2018-03-17T17:21:37.468Z,62.62
2018-03-17T17:24:06.395Z,77.37
2018-03-17T17:26:35.866Z,38.17
2018-03-17T17:29:04.932Z,20.58
2018-03-17T17:31:33.864Z,17.92
2018-03-17T17:34:02.787Z,15.30
2018-03-17T17:36:31.715Z,13.80
2018-03-17T17:39:00.613Z,9.45
2018-03-17T17:41:29.551Z,17.37
2018-03-17T17:43:58.453Z,11.88
2018-03-17T17:46:27.400Z,9.90
2018-03-17T17:48:56.290Z,12.18
2018-03-17T17:51:25.199Z,13.45
2018-03-17T17:53:54.198Z,11.73
2018-03-17T17:56:23.119Z,16.25
2018-03-17T17:58:52.193Z,19.48
2018-03-17T18:01:21.316Z,12.80
2018-03-17T18:03:50.206Z,13.50
2018-03-17T18:06:19.181Z,13.88
2018-03-17T18:08:48.156Z,12.15
2018-03-17T18:11:17.076Z,10.70
2018-03-17T18:13:46.625Z,15.65
2018-03-17T18:16:15.570Z,14.77
2018-03-17T18:18:44.477Z,11.48
2018-03-17T18:21:13.460Z,19.15
2018-03-17T18:23:42.383Z,13.65
2018-03-17T18:26:11.285Z,16.25
2018-03-17T18:28:40.237Z,13.35
2018-03-17T18:31:09.145Z,13.27
2018-03-17T18:33:38.056Z,17.75
2018-03-17T18:36:06.999Z,16.27
2018-03-17T18:38:35.942Z,14.90
2018-03-17T18:41:04.874Z,15.38
2018-03-17T18:43:33.796Z,9.18
2018-03-17T18:46:02.696Z,12.65
2018-03-17T18:48:31.660Z,19.05
2018-03-17T18:51:00.590Z,16.67
2018-03-17T18:53:29.522Z,10.43
2018-03-17T18:55:58.498Z,10.20
2018-03-17T18:58:27.391Z,8.15
2018-03-17T19:00:56.317Z,11.65
2018-03-17T19:03:25.274Z,11.05
2018-03-17T19:05:54.183Z,13.75
2018-03-17T19:08:23.128Z,8.73
2018-03-17T19:10:52.048Z,9.90
2018-03-17T19:13:21.091Z,15.43
2018-03-17T19:15:50.012Z,13.60
2018-03-17T19:18:18.970Z,11.00
2018-03-17T19:20:47.932Z,17.98
2018-03-17T19:23:16.843Z,12.57
2018-03-17T19:25:45.768Z,12.77
2018-03-17T19:28:14.679Z,9.15
2018-03-17T19:30:43.644Z,15.23
2018-03-17T19:33:12.542Z,9.50
2018-03-17T19:35:41.444Z,15.27
2018-03-17T19:38:10.429Z,12.80
2018-03-17T19:40:39.338Z,9.77
2018-03-17T19:43:08.235Z,11.12
2018-03-17T19:45:37.212Z,15.25
2018-03-17T19:48:06.132Z,15.75
2018-03-17T19:50:35.093Z,13.00
2018-03-17T19:53:04.258Z,7.25
2018-03-17T19:55:33.192Z,12.73
2018-03-17T19:58:02.150Z,10.90
2018-03-17T20:00:31.105Z,7.75
2018-03-17T20:03:00.020Z,13.60
2018-03-17T20:05:28.976Z,10.13
2018-03-17T20:07:57.874Z,11.12
2018-03-17T20:10:26.873Z,15.35
2018-03-17T20:12:55.799Z,16.40
2018-03-17T20:15:24.724Z,17.75
2018-03-17T20:17:53.691Z,12.68
2018-03-17T20:20:22.599Z,19.20
2018-03-17T20:22:51.595Z,12.63
2018-03-17T20:25:20.494Z,26.35
2018-03-17T20:27:49.418Z,14.60
2018-03-17T20:30:18.410Z,18.15
2018-03-17T20:32:47.386Z,13.57
2018-03-17T20:35:16.349Z,22.75
2018-03-17T20:37:45.271Z,14.90
2018-03-17T20:40:14.249Z,15.63
2018-03-17T20:42:43.201Z,30.45
2018-03-17T20:45:12.119Z,18.90
2018-03-17T20:47:41.076Z,23.25
2018-03-17T20:50:10.016Z,16.27
2018-03-17T20:52:38.963Z,17.15
2018-03-17T20:55:07.870Z,14.95
2018-03-17T20:57:36.774Z,14.95
2018-03-17T21:00:05.720Z,15.35
2018-03-17T21:02:34.711Z,14.98
2018-03-17T21:05:03.655Z,18.87
2018-03-17T21:07:32.616Z,14.05
2018-03-17T21:10:01.603Z,18.10
2018-03-17T21:12:30.784Z,13.07
2018-03-17T21:14:59.712Z,22.35
2018-03-17T21:17:28.678Z,18.33
2018-03-17T21:19:57.587Z,15.68
2018-03-17T21:22:26.508Z,15.00
2018-03-17T21:24:55.477Z,19.65
2018-03-17T21:27:24.454Z,20.83
2018-03-17T21:29:53.382Z,12.45
2018-03-17T21:32:22.334Z,13.00
2018-03-17T21:34:51.334Z,16.67
2018-03-17T21:37:20.253Z,11.82
2018-03-17T21:39:49.167Z,13.15
2018-03-17T21:42:18.083Z,14.85
2018-03-17T21:44:46.996Z,12.63
2018-03-17T21:47:15.976Z,14.15
2018-03-17T21:49:44.918Z,12.32
2018-03-17T21:52:13.908Z,8.52
2018-03-17T21:54:42.830Z,8.52
2018-03-17T21:57:11.741Z,8.60
2018-03-17T21:59:40.678Z,9.07
2018-03-17T22:02:09.616Z,13.43
2018-03-17T22:04:38.538Z,12.02
2018-03-17T22:07:07.532Z,12.35
2018-03-17T22:09:36.467Z,14.25
2018-03-17T22:12:05.386Z,11.65
2018-03-17T22:14:34.355Z,12.48
2018-03-17T22:17:03.281Z,12.27
2018-03-17T22:19:32.310Z,10.70
2018-03-17T22:22:01.251Z,12.02
2018-03-17T22:24:30.238Z,12.10
2018-03-17T22:26:59.234Z,19.05
2018-03-17T22:29:28.171Z,16.65
2018-03-17T22:31:57.128Z,15.75
2018-03-17T22:34:26.120Z,12.80
2018-03-17T22:36:55.049Z,14.18
2018-03-17T22:39:24.075Z,11.38
2018-03-17T22:41:52.998Z,10.70
2018-03-17T22:44:21.949Z,16.02
2018-03-17T22:46:50.900Z,13.98
2018-03-17T22:49:20.655Z,12.20
2018-03-17T22:51:49.573Z,11.18
2018-03-17T22:54:18.563Z,10.05
2018-03-17T22:56:47.480Z,6.47
2018-03-17T22:59:16.449Z,15.18
2018-03-17T23:01:45.417Z,9.55
2018-03-17T23:04:14.326Z,12.00
2018-03-17T23:06:43.219Z,9.18
2018-03-17T23:09:12.153Z,10.82
2018-03-17T23:11:41.082Z,11.73
2018-03-17T23:14:10.030Z,7.35
2018-03-17T23:16:38.923Z,10.57
2018-03-17T23:19:07.847Z,16.48
2018-03-17T23:21:36.815Z,10.73
2018-03-17T23:24:05.723Z,12.95
2018-03-17T23:26:35.691Z,14.55
2018-03-17T23:29:04.675Z,15.20
2018-03-17T23:31:33.567Z,11.10
2018-03-17T23:34:02.500Z,8.43
2018-03-17T23:36:31.411Z,10.60
2018-03-17T23:39:00.326Z,14.38
2018-03-17T23:41:29.270Z,10.40
2018-03-17T23:43:58.184Z,10.85
2018-03-17T23:46:27.084Z,6.95
2018-03-17T23:48:56.009Z,9.23
2018-03-17T23:51:24.992Z,12.27
2018-03-17T23:53:53.927Z,10.00
2018-03-17T23:56:22.814Z,11.15
2018-03-17T23:58:51.862Z,7.57
